Time;durP1;ratioP1;P1;durP2;ratioP2;P2;SDS_P1;SDS_P2;PMS_P1;PMS_P2;Temp;Humidity;BMP_temperature;BMP_pressure;BME280_temperature;BME280_humidity;BME280_pressure;Samples;Min_cycle;Max_cycle;Signal;HPM_P1;HPM_P2
2023/05/08 00:04:44;;;;;;;2.83;2.47;;;;;;;;;;10198442;28;20056;-83
2023/05/08 00:09:48;;;;;;;3.78;2.33;;;;;;;;;;10134225;28;20574;-83
2023/05/08 00:14:51;;;;;;;2.60;2.38;;;;;;;;;;10198314;28;20063;-83
2023/05/08 00:19:56;;;;;;;3.20;2.35;;;;;;;;;;10131808;28;20502;-82
2023/05/08 00:24:59;;;;;;;5.50;3.00;;;;;;;;;;10198351;28;20723;-82
2023/05/08 00:30:03;;;;;;;3.45;2.97;;;;;;;;;;10133876;28;20049;-82
2023/05/08 00:35:08;;;;;;;3.38;2.50;;;;;;;;;;10134475;28;20128;-83
2023/05/08 00:40:11;;;;;;;2.20;2.00;;;;;;;;;;10132644;28;20059;-83
2023/05/08 00:45:15;;;;;;;3.30;2.33;;;;;;;;;;10192831;28;20061;-83
2023/05/08 00:50:20;;;;;;;4.03;2.53;;;;;;;;;;10122304;28;20506;-83
2023/05/08 00:55:23;;;;;;;2.63;2.40;;;;;;;;;;10186172;28;20063;-83
2023/05/08 01:00:27;;;;;;;3.28;2.40;;;;;;;;;;10192230;28;20051;-83
2023/05/08 01:05:32;;;;;;;3.15;2.65;;;;;;;;;;10185154;28;20048;-83
2023/05/08 01:10:46;;;;;;;4.28;2.72;;;;;;;;;;10196213;28;20048;-83
2023/05/08 01:15:56;;;;;;;2.75;2.47;;;;;;;;;;10197653;28;20053;-83
2023/05/08 01:21:10;;;;;;;3.40;2.90;;;;;;;;;;10197974;28;20084;-83
2023/05/08 01:26:37;;;;;;;3.35;3.05;;;;;;;;;;10199967;28;20048;-83
2023/05/08 01:31:54;;;;;;;4.25;2.60;;;;;;;;;;10196041;28;20072;-82
2023/05/08 01:37:02;;;;;;;5.47;2.78;;;;;;;;;;10194638;28;20066;-83
2023/05/08 01:42:08;;;;;;;3.03;2.70;;;;;;;;;;10188552;28;20514;-83
2023/05/08 01:47:14;;;;;;;4.20;2.83;;;;;;;;;;10132078;28;20049;-82
2023/05/08 01:52:21;;;;;;;;;;;;;;;;;;10194225;28;20049;-82
2023/05/08 01:57:27;;;;;;;3.15;2.78;;;;;;;;;;10191224;28;20421;-82
2023/05/08 02:02:32;;;;;;;4.07;2.67;;;;;;;;;;10193002;28;20526;-82
2023/05/08 02:07:37;;;;;;;2.97;2.47;;;;;;;;;;10118343;28;20064;-82
2023/05/08 02:12:42;;;;;;;2.97;2.67;;;;;;;;;;10193386;28;20044;-82
2023/05/08 02:17:48;;;;;;;4.03;3.15;;;;;;;;;;10193655;28;20072;-84
2023/05/08 02:22:53;;;;;;;2.75;2.55;;;;;;;;;;10193523;28;20071;-84
2023/05/08 02:27:57;;;;;;;3.50;2.40;;;;;;;;;;10196381;28;20052;-83
2023/05/08 02:33:02;;;;;;;3.00;2.58;;;;;;;;;;10196099;28;20057;-83
2023/05/08 02:38:09;;;;;;;4.07;2.50;;;;;;;;;;10190472;28;20076;-83
2023/05/08 02:43:13;;;;;;;3.00;2.42;;;;;;;;;;10194015;28;20072;-83
2023/05/08 02:48:26;;;;;;;2.75;2.50;;;;;;;;;;10196726;28;20053;-83
2023/05/08 02:53:35;;;;;;;3.33;2.58;;;;;;;;;;10197032;28;20092;-83
2023/05/08 02:58:43;;;;;;;2.70;2.50;;;;;;;;;;10190377;28;20135;-83
2023/05/08 03:03:54;;;;;;;4.43;2.58;;;;;;;;;;10195900;28;20057;-82
2023/05/08 03:09:01;;;;;;;2.63;2.17;;;;;;;;;;10190996;28;20048;-83
2023/05/08 03:14:10;;;;;;;4.55;2.55;;;;;;;;;;10190328;28;20103;-82
2023/05/08 03:19:21;;;;;;;3.78;2.67;;;;;;;;;;10193240;28;20056;-83
2023/05/08 03:24:29;;;;;;;2.90;2.40;;;;;;;;;;10197248;28;20087;-81
2023/05/08 03:29:34;;;;;;;2.85;2.58;;;;;;;;;;10193983;28;20061;-83
2023/05/08 03:34:38;;;;;;;2.67;2.47;;;;;;;;;;10196705;28;20136;-83
2023/05/08 03:39:43;;;;;;;3.38;2.88;;;;;;;;;;10197051;28;20118;-83
2023/05/08 03:44:47;;;;;;;3.97;2.53;;;;;;;;;;10132511;28;20052;-82
2023/05/08 03:49:51;;;;;;;2.50;2.30;;;;;;;;;;10192942;28;20064;-82
2023/05/08 03:54:55;;;;;;;2.60;2.40;;;;;;;;;;10125825;28;20073;-82
2023/05/08 04:00:08;;;;;;;9.73;3.30;;;;;;;;;;10187316;28;20052;-82
2023/05/08 04:05:25;;;;;;;4.22;2.63;;;;;;;;;;10188330;28;20686;-82
2023/05/08 04:10:32;;;;;;;2.80;2.50;;;;;;;;;;10186858;28;20600;-82
2023/05/08 04:15:39;;;;;;;3.47;2.50;;;;;;;;;;10181237;28;20309;-86
2023/05/08 04:20:45;;;;;;;3.40;2.90;;;;;;;;;;10167078;28;20059;-85
2023/05/08 04:25:52;;;;;;;4.68;2.55;;;;;;;;;;10182947;28;20044;-86
2023/05/08 04:30:57;;;;;;;3.08;2.30;;;;;;;;;;10203338;28;20657;-83
2023/05/08 04:36:02;;;;;;;3.03;2.72;;;;;;;;;;10174086;28;20047;-82
2023/05/08 04:41:08;;;;;;;3.15;2.85;;;;;;;;;;10174511;28;20140;-82
2023/05/08 04:46:12;;;;;;;3.57;2.80;;;;;;;;;;10181416;28;20052;-82
2023/05/08 04:51:15;;;;;;;2.45;2.25;;;;;;;;;;10196851;28;20365;-82
2023/05/08 04:56:20;;;;;;;3.42;2.60;;;;;;;;;;10171197;28;20044;-83
2023/05/08 05:01:24;;;;;;;3.75;2.65;;;;;;;;;;10112129;28;20041;-82
2023/05/08 05:06:28;;;;;;;3.28;2.95;;;;;;;;;;10275306;23;20063;-87
2023/05/08 05:11:33;;;;;;;2.70;2.38;;;;;;;;;;10197399;28;20068;-88
2023/05/08 05:16:36;;;;;;;2.63;2.42;;;;;;;;;;10170291;28;20103;-91
2023/05/08 05:21:40;;;;;;;2.88;2.53;;;;;;;;;;10184359;28;20148;-88
2023/05/08 05:26:45;;;;;;;2.75;2.47;;;;;;;;;;10188193;28;20068;-89
2023/05/08 05:31:48;;;;;;;3.08;2.30;;;;;;;;;;10207456;28;20048;-87
2023/05/08 05:36:52;;;;;;;3.22;2.65;;;;;;;;;;10177900;28;20059;-91
2023/05/08 05:41:57;;;;;;;3.67;3.25;;;;;;;;;;10174459;28;20410;-87
2023/05/08 05:47:01;;;;;;;3.10;2.50;;;;;;;;;;10176195;28;20115;-88
2023/05/08 05:52:05;;;;;;;2.75;2.55;;;;;;;;;;10181167;28;20514;-87
2023/05/08 05:57:12;;;;;;;4.10;2.58;;;;;;;;;;10184629;28;20072;-87
2023/05/08 06:02:17;;;;;;;2.30;2.10;;;;;;;;;;10181842;28;20119;-89
2023/05/08 06:07:22;;;;;;;;;;;;;;;;;;10188903;28;20060;-91
2023/05/08 06:12:27;;;;;;;2.22;2.03;;;;;;;;;;10180632;28;19924;-87
2023/05/08 06:17:31;;;;;;;2.45;2.25;;;;;;;;;;10178987;28;20057;-90
2023/05/08 06:22:36;;;;;;;2.70;2.47;;;;;;;;;;10186886;28;20045;-90
2023/05/08 06:27:41;;;;;;;2.97;2.38;;;;;;;;;;10162584;28;20135;-88
2023/05/08 06:32:44;;;;;;;2.65;2.45;;;;;;;;;;10180805;28;20053;-87
2023/05/08 06:37:48;;;;;;;2.65;2.45;;;;;;;;;;10187957;28;20052;-90
2023/05/08 06:42:53;;;;;;;3.55;3.00;;;;;;;;;;10183217;28;20803;-89
2023/05/08 06:47:56;;;;;;;2.50;2.30;;;;;;;;;;10180770;28;20151;-89
2023/05/08 06:53:00;;;;;;;2.90;2.63;;;;;;;;;;10205793;28;20063;-89
2023/05/08 06:58:04;;;;;;;3.28;2.58;;;;;;;;;;10148222;28;20063;-89
2023/05/08 07:03:08;;;;;;;3.00;2.63;;;;;;;;;;10118250;28;20498;-89
2023/05/08 07:08:12;;;;;;;3.80;2.55;;;;;;;;;;10207890;28;20077;-87
2023/05/08 07:13:20;;;;;;;3.35;2.35;;;;;;;;;;10111792;28;20465;-86
2023/05/08 07:18:23;;;;;;;2.78;2.45;;;;;;;;;;10179756;28;20112;-84
2023/05/08 07:23:27;;;;;;;3.05;2.45;;;;;;;;;;10170775;28;20056;-83
2023/05/08 07:28:32;;;;;;;3.28;2.50;;;;;;;;;;10178664;28;20055;-85
2023/05/08 07:33:36;;;;;;;2.60;2.40;;;;;;;;;;10114021;28;20594;-85
2023/05/08 07:38:42;;;;;;;3.05;2.47;;;;;;;;;;10112135;28;20045;-85
2023/05/08 07:43:48;;;;;;;2.38;2.17;;;;;;;;;;10174254;28;20048;-85
2023/05/08 07:48:53;;;;;;;2.58;2.38;;;;;;;;;;10112682;28;20453;-86
2023/05/08 07:53:57;;;;;;;4.25;2.20;;;;;;;;;;10178616;28;20048;-86
2023/05/08 07:59:02;;;;;;;3.55;2.60;;;;;;;;;;10104175;28;20053;-87
2023/05/08 08:04:06;;;;;;;2.85;2.25;;;;;;;;;;10104567;28;20510;-86
2023/05/08 08:09:10;;;;;;;3.30;2.20;;;;;;;;;;10178689;28;20076;-87
2023/05/08 08:14:15;;;;;;;2.33;2.13;;;;;;;;;;10108848;28;20413;-87
2023/05/08 08:19:18;;;;;;;2.35;2.15;;;;;;;;;;10097980;28;20459;-86
2023/05/08 08:24:24;;;;;;;2.05;1.85;;;;;;;;;;10176180;28;20531;-86
2023/05/08 08:29:28;;;;;;;3.47;2.33;;;;;;;;;;10190102;28;20051;-87
2023/05/08 08:34:33;;;;;;;1.95;1.75;;;;;;;;;;10169419;28;20057;-87
2023/05/08 08:39:37;;;;;;;2.10;1.90;;;;;;;;;;10087509;28;20530;-86
2023/05/08 08:44:42;;;;;;;2.25;2.05;;;;;;;;;;10173576;28;20593;-87
2023/05/08 08:49:50;;;;;;;2.47;2.28;;;;;;;;;;10176321;28;20058;-87
2023/05/08 08:54:56;;;;;;;2.70;2.15;;;;;;;;;;10112733;28;20080;-89
2023/05/08 09:00:03;;;;;;;;;;;;;;;;;;10176451;28;20075;-89
2023/05/08 09:05:08;;;;;;;2.15;1.95;;;;;;;;;;10183456;28;19924;-91
2023/05/08 09:10:14;;;;;;;2.22;1.90;;;;;;;;;;10180048;28;20079;-89
2023/05/08 09:15:19;;;;;;;2.78;2.28;;;;;;;;;;10173551;28;20057;-90
2023/05/08 09:20:23;;;;;;;3.67;2.15;;;;;;;;;;10109433;28;20075;-93
2023/05/08 09:25:40;;;;;;;2.70;2.10;;;;;;;;;;10175486;28;20048;-88
2023/05/08 09:30:51;;;;;;;2.38;2.17;;;;;;;;;;10183553;28;20044;-90
2023/05/08 09:35:56;;;;;;;3.28;2.45;;;;;;;;;;10184837;28;20064;-88
2023/05/08 09:41:08;;;;;;;2.75;2.28;;;;;;;;;;10118417;28;20048;-90
2023/05/08 09:46:32;;;;;;;1.75;1.65;;;;;;;;;;10183155;28;20140;-88
2023/05/08 09:51:36;;;;;;;3.90;2.78;;;;;;;;;;10182991;28;20052;-88
2023/05/08 09:56:40;;;;;;;3.38;2.88;;;;;;;;;;10184898;28;20528;-89
2023/05/08 10:01:47;;;;;;;3.88;2.30;;;;;;;;;;10105558;28;20107;-89
2023/05/08 10:06:58;;;;;;;2.30;2.10;;;;;;;;;;10178973;28;20107;-89
2023/05/08 10:12:01;;;;;;;4.20;2.38;;;;;;;;;;10182610;28;20180;-88
2023/05/08 10:17:09;;;;;;;2.33;1.80;;;;;;;;;;10168110;28;20127;-89
2023/05/08 10:22:20;;;;;;;2.22;2.03;;;;;;;;;;10193434;28;20553;-91
2023/05/08 10:27:30;;;;;;;2.60;2.28;;;;;;;;;;10179129;28;20131;-89
2023/05/08 10:32:40;;;;;;;4.10;2.38;;;;;;;;;;10116736;28;20052;-89
2023/05/08 10:37:45;;;;;;;2.40;2.20;;;;;;;;;;10195792;28;20044;-91
2023/05/08 10:42:50;;;;;;;2.93;2.40;;;;;;;;;;10183518;28;20391;-88
2023/05/08 10:48:04;;;;;;;4.47;3.20;;;;;;;;;;10184476;28;20521;-88
2023/05/08 10:53:15;;;;;;;2.58;2.30;;;;;;;;;;10183723;28;20057;-88
2023/05/08 10:58:30;;;;;;;2.78;2.42;;;;;;;;;;10184706;28;20132;-88
2023/05/08 11:03:42;;;;;;;2.83;2.60;;;;;;;;;;10486671;22;20078;-83
2023/05/08 11:08:50;;;;;;;2.58;2.38;;;;;;;;;;10200033;28;20683;-83
2023/05/08 11:13:58;;;;;;;2.70;2.47;;;;;;;;;;10233607;28;20473;-83
2023/05/08 11:19:18;;;;;;;2.58;2.38;;;;;;;;;;10152141;28;20063;-82
2023/05/08 11:24:34;;;;;;;2.20;2.00;;;;;;;;;;10224365;28;20052;-84
2023/05/08 11:29:38;;;;;;;2.50;2.30;;;;;;;;;;10159820;28;20048;-83
2023/05/08 11:34:49;;;;;;;2.58;2.33;;;;;;;;;;10226920;28;20067;-83
2023/05/08 11:39:52;;;;;;;2.70;2.45;;;;;;;;;;10221557;28;20063;-83
2023/05/08 11:45:04;;;;;;;2.75;2.47;;;;;;;;;;10221398;28;20618;-83
2023/05/08 11:50:10;;;;;;;3.28;2.97;;;;;;;;;;10159937;28;20056;-83
2023/05/08 11:55:14;;;;;;;4.57;3.03;;;;;;;;;;10160069;28;20052;-84
2023/05/08 12:00:18;;;;;;;3.03;2.72;;;;;;;;;;10227056;28;20059;-84
2023/05/08 12:05:28;;;;;;;3.20;2.80;;;;;;;;;;10173748;28;20044;-83
2023/05/08 12:10:31;;;;;;;3.33;2.63;;;;;;;;;;10168584;28;20549;-83
2023/05/08 12:15:36;;;;;;;4.38;2.95;;;;;;;;;;10157282;28;20044;-83
2023/05/08 12:20:40;;;;;;;4.03;3.28;;;;;;;;;;10167543;28;20110;-83
2023/05/08 12:25:44;;;;;;;3.78;3.42;;;;;;;;;;10235101;28;20052;-83
2023/05/08 12:30:48;;;;;;;3.28;2.97;;;;;;;;;;10234349;28;20110;-83
2023/05/08 12:35:53;;;;;;;3.47;2.90;;;;;;;;;;10222896;28;20044;-83
2023/05/08 12:40:56;;;;;;;3.20;2.90;;;;;;;;;;10233425;28;21422;-83
2023/05/08 12:46:00;;;;;;;3.78;3.15;;;;;;;;;;10225412;28;20067;-82
2023/05/08 12:51:06;;;;;;;3.97;3.33;;;;;;;;;;10170556;28;20082;-83
2023/05/08 12:56:09;;;;;;;;;;;;;;;;;;10171265;28;20566;-84
2023/05/08 13:01:13;;;;;;;4.10;3.38;;;;;;;;;;10170440;28;20202;-84
2023/05/08 13:06:23;;;;;;;5.15;3.80;;;;;;;;;;10235605;28;20051;-83
2023/05/08 13:11:31;;;;;;;3.80;3.40;;;;;;;;;;10235075;28;20079;-83
2023/05/08 13:16:43;;;;;;;3.22;2.92;;;;;;;;;;10222075;28;20588;-82
2023/05/08 13:21:48;;;;;;;4.05;3.40;;;;;;;;;;10228836;28;20048;-83
2023/05/08 13:26:51;;;;;;;4.90;3.38;;;;;;;;;;10229539;28;20277;-83
2023/05/08 13:31:54;;;;;;;5.57;3.70;;;;;;;;;;10231216;28;20056;-84
2023/05/08 13:36:59;;;;;;;3.50;2.78;;;;;;;;;;10224617;28;20063;-84
2023/05/08 13:42:02;;;;;;;2.83;2.55;;;;;;;;;;10229602;28;20060;-83
2023/05/08 13:47:06;;;;;;;4.03;3.22;;;;;;;;;;10216756;28;20059;-83
2023/05/08 13:52:10;;;;;;;4.82;4.07;;;;;;;;;;10167161;28;20607;-84
2023/05/08 13:57:14;;;;;;;4.05;3.20;;;;;;;;;;10233488;28;20698;-83
2023/05/08 14:02:17;;;;;;;3.15;2.85;;;;;;;;;;10230663;28;20060;-83
2023/05/08 14:07:21;;;;;;;4.55;3.15;;;;;;;;;;10229727;28;20090;-82
2023/05/08 14:12:25;;;;;;;3.13;2.75;;;;;;;;;;10230922;28;20450;-83
2023/05/08 14:17:28;;;;;;;3.10;2.67;;;;;;;;;;10239315;28;20041;-83
2023/05/08 14:22:32;;;;;;;4.28;2.97;;;;;;;;;;10230102;28;20047;-83
2023/05/08 14:27:36;;;;;;;4.47;2.83;;;;;;;;;;10241521;28;20059;-83
2023/05/08 14:32:39;;;;;;;2.70;2.47;;;;;;;;;;10169386;28;20075;-83
2023/05/08 14:37:44;;;;;;;3.17;2.88;;;;;;;;;;10241802;28;20055;-83
2023/05/08 14:42:47;;;;;;;2.78;2.45;;;;;;;;;;10168246;28;20124;-84
2023/05/08 14:47:50;;;;;;;2.92;2.65;;;;;;;;;;10166591;28;20120;-83
2023/05/08 14:52:55;;;;;;;2.90;2.45;;;;;;;;;;10237200;28;20048;-83
2023/05/08 14:57:58;;;;;;;3.15;2.70;;;;;;;;;;10173342;28;20064;-83
2023/05/08 15:03:02;;;;;;;2.67;2.47;;;;;;;;;;10233477;28;20091;-83
2023/05/08 15:08:07;;;;;;;2.70;2.50;;;;;;;;;;10223500;28;20528;-83
2023/05/08 15:13:10;;;;;;;2.60;2.27;;;;;;;;;;10231613;28;20052;-83
2023/05/08 15:18:13;;;;;;;7.80;3.13;;;;;;;;;;10234541;28;20502;-84
2023/05/08 15:23:19;;;;;;;4.72;3.05;;;;;;;;;;10230817;28;20127;-83
2023/05/08 15:28:22;;;;;;;3.97;3.10;;;;;;;;;;10169224;28;20062;-84
2023/05/08 15:33:26;;;;;;;3.53;2.95;;;;;;;;;;10224502;28;20148;-83
2023/05/08 15:38:30;;;;;;;3.28;2.83;;;;;;;;;;10228654;28;20079;-84
2023/05/08 15:43:34;;;;;;;3.22;2.33;;;;;;;;;;10154025;28;20079;-83
2023/05/08 15:48:37;;;;;;;3.25;2.95;;;;;;;;;;10228250;28;20044;-84
2023/05/08 15:53:42;;;;;;;2.55;2.08;;;;;;;;;;10224134;28;20066;-84
2023/05/08 15:58:45;;;;;;;3.05;2.53;;;;;;;;;;10224919;28;20421;-83
2023/05/08 16:03:49;;;;;;;3.22;2.40;;;;;;;;;;10153685;28;20203;-83
2023/05/08 16:08:53;;;;;;;2.22;2.03;;;;;;;;;;10161577;28;20124;-84
2023/05/08 16:13:57;;;;;;;3.33;2.67;;;;;;;;;;10227694;28;20060;-84
2023/05/08 16:19:01;;;;;;;2.72;2.03;;;;;;;;;;10232345;28;20425;-84
2023/05/08 16:24:06;;;;;;;2.22;1.95;;;;;;;;;;10231156;28;20072;-84
2023/05/08 16:29:10;;;;;;;3.13;2.10;;;;;;;;;;10163294;28;20044;-83
2023/05/08 16:34:13;;;;;;;2.10;1.63;;;;;;;;;;10160646;28;20067;-84
2023/05/08 16:39:17;;;;;;;2.22;1.80;;;;;;;;;;10229726;28;20060;-84
2023/05/08 16:44:21;;;;;;;1.75;1.60;;;;;;;;;;10218026;28;20607;-83
2023/05/08 16:49:24;;;;;;;1.67;1.58;;;;;;;;;;10224234;28;20412;-83
2023/05/08 16:54:29;;;;;;;2.47;1.45;;;;;;;;;;10222484;28;20060;-82
2023/05/08 16:59:32;;;;;;;1.77;1.57;;;;;;;;;;10222632;28;20055;-83
2023/05/08 17:04:36;;;;;;;1.98;1.60;;;;;;;;;;10500001;22;20050;-81
2023/05/08 17:09:41;;;;;;;2.25;1.50;;;;;;;;;;10221592;28;20568;-81
2023/05/08 17:14:44;;;;;;;1.50;1.40;;;;;;;;;;10212507;28;20046;-81
2023/05/08 17:19:47;;;;;;;2.45;1.88;;;;;;;;;;10215893;28;20079;-81
2023/05/08 17:24:52;;;;;;;3.13;1.65;;;;;;;;;;10212296;28;20052;-81
2023/05/08 17:29:55;;;;;;;1.77;1.67;;;;;;;;;;10206242;28;20052;-82
2023/05/08 17:34:59;;;;;;;2.05;1.60;;;;;;;;;;10213290;28;20133;-81
2023/05/08 17:40:04;;;;;;;2.15;1.73;;;;;;;;;;10214517;28;20131;-81
2023/05/08 17:45:08;;;;;;;2.10;1.67;;;;;;;;;;10147281;28;20049;-81
2023/05/08 17:50:12;;;;;;;1.77;1.67;;;;;;;;;;10148971;28;20056;-81
2023/05/08 17:55:17;;;;;;;1.65;1.55;;;;;;;;;;10142432;28;20052;-81
2023/05/08 18:00:27;;;;;;;1.60;1.42;;;;;;;;;;10214660;28;20056;-81
2023/05/08 18:05:31;;;;;;;1.67;1.50;;;;;;;;;;10162703;28;1256340;-81
2023/05/08 18:10:38;;;;;;;2.05;1.70;;;;;;;;;;10208159;28;20053;-82
2023/05/08 18:15:41;;;;;;;1.90;1.77;;;;;;;;;;10185836;28;20061;-82
2023/05/08 18:20:44;;;;;;;3.08;1.88;;;;;;;;;;10079239;28;20578;-81
2023/05/08 18:25:49;;;;;;;2.13;1.77;;;;;;;;;;10168364;28;20048;-82
2023/05/08 18:30:52;;;;;;;1.63;1.45;;;;;;;;;;10155455;28;20068;-82
2023/05/08 18:35:56;;;;;;;1.85;1.67;;;;;;;;;;10167951;28;20060;-82
2023/05/08 18:41:03;;;;;;;2.20;1.88;;;;;;;;;;10132321;28;20078;-81
2023/05/08 18:46:10;;;;;;;1.80;1.70;;;;;;;;;;10133732;28;20056;-81
2023/05/08 18:51:14;;;;;;;3.10;1.98;;;;;;;;;;10218597;28;20059;-81
2023/05/08 18:56:21;;;;;;;4.20;2.05;;;;;;;;;;10207667;28;20060;-82
2023/05/08 19:01:25;;;;;;;4.38;2.05;;;;;;;;;;10213430;28;20056;-82
2023/05/08 19:06:28;;;;;;;2.58;1.98;;;;;;;;;;10213365;28;20537;-81
2023/05/08 19:11:33;;;;;;;2.33;2.13;;;;;;;;;;10216153;28;20114;-88
2023/05/08 19:16:36;;;;;;;3.40;2.40;;;;;;;;;;10212430;28;20063;-81
2023/05/08 19:21:40;;;;;;;3.47;2.25;;;;;;;;;;10206026;28;20060;-81
2023/05/08 19:26:44;;;;;;;2.88;2.20;;;;;;;;;;10149628;28;20529;-82
2023/05/08 19:31:48;;;;;;;4.72;2.25;;;;;;;;;;10154110;28;20412;-81
2023/05/08 19:36:51;;;;;;;2.58;1.83;;;;;;;;;;10210299;28;20052;-81
2023/05/08 19:41:56;;;;;;;11.90;3.38;;;;;;;;;;10217583;28;20044;-81
2023/05/08 19:46:59;;;;;;;3.95;3.40;;;;;;;;;;10145602;28;20080;-82
2023/05/08 19:52:04;;;;;;;2.95;2.50;;;;;;;;;;10205096;28;20052;-82
2023/05/08 19:57:09;;;;;;;2.85;2.55;;;;;;;;;;10214383;28;20055;-82
2023/05/08 20:02:12;;;;;;;2.70;2.03;;;;;;;;;;10214803;28;20056;-82
2023/05/08 20:07:16;;;;;;;2.63;2.28;;;;;;;;;;10211639;28;20071;-82
2023/05/08 20:12:21;;;;;;;2.60;2.22;;;;;;;;;;10213517;28;20056;-82
2023/05/08 20:17:37;;;;;;;3.15;2.13;;;;;;;;;;10218711;28;20062;-89
2023/05/08 20:22:40;;;;;;;1.90;1.80;;;;;;;;;;10211481;28;20541;-84
2023/05/08 20:27:45;;;;;;;2.30;2.10;;;;;;;;;;10158252;28;20482;-86
2023/05/08 20:32:48;;;;;;;3.08;2.22;;;;;;;;;;10213236;28;20636;-87
2023/05/08 20:37:52;;;;;;;2.85;2.08;;;;;;;;;;10146774;28;20103;-82
2023/05/08 20:42:57;;;;;;;2.65;2.22;;;;;;;;;;10205844;28;20062;-81
2023/05/08 20:48:00;;;;;;;4.18;2.20;;;;;;;;;;10150687;28;20771;-81
2023/05/08 20:53:04;;;;;;;2.85;2.60;;;;;;;;;;10215313;28;20485;-82
2023/05/08 20:58:08;;;;;;;3.45;2.95;;;;;;;;;;10211770;28;20058;-83
2023/05/08 21:03:12;;;;;;;3.08;2.70;;;;;;;;;;10143951;28;20048;-82
2023/05/08 21:08:15;;;;;;;3.22;2.47;;;;;;;;;;10215066;28;20048;-82
2023/05/08 21:13:20;;;;;;;2.63;2.40;;;;;;;;;;10215417;28;20102;-85
2023/05/08 21:18:23;;;;;;;2.90;2.40;;;;;;;;;;10156743;28;20060;-83
2023/05/08 21:23:33;;;;;;;5.00;3.67;;;;;;;;;;10200746;28;20048;-84
2023/05/08 21:28:38;;;;;;;4.65;3.47;;;;;;;;;;10149434;28;20119;-88
2023/05/08 21:33:42;;;;;;;3.83;2.80;;;;;;;;;;10211800;28;20110;-82
2023/05/08 21:38:45;;;;;;;4.18;3.28;;;;;;;;;;10213658;28;20051;-82
2023/05/08 21:43:50;;;;;;;5.75;2.75;;;;;;;;;;10140238;28;20074;-82
2023/05/08 21:48:53;;;;;;;5.53;2.42;;;;;;;;;;10213121;28;20057;-82
2023/05/08 21:54:05;;;;;;;4.07;3.05;;;;;;;;;;10143627;28;20059;-82
2023/05/08 21:59:53;;;;;;;3.58;2.78;;;;;;;;;;10246902;28;20050;-83
2023/05/08 22:05:02;;;;;;;3.72;2.67;;;;;;;;;;10143300;28;20773;-83
2023/05/08 22:10:09;;;;;;;2.95;2.65;;;;;;;;;;10211468;28;20144;-82
2023/05/08 22:15:12;;;;;;;4.55;2.60;;;;;;;;;;10210881;28;20486;-81
2023/05/08 22:20:25;;;;;;;3.13;2.53;;;;;;;;;;10212298;28;20882;-81
2023/05/08 22:25:29;;;;;;;4.72;2.63;;;;;;;;;;10211112;28;20056;-82
2023/05/08 22:30:32;;;;;;;3.75;2.80;;;;;;;;;;10147949;28;20048;-82
2023/05/08 22:35:37;;;;;;;4.10;3.10;;;;;;;;;;10216050;28;20525;-82
2023/05/08 22:40:41;;;;;;;4.10;2.70;;;;;;;;;;10208004;28;20055;-81
2023/05/08 22:45:44;;;;;;;4.30;2.88;;;;;;;;;;10151798;28;20053;-81
2023/05/08 22:50:49;;;;;;;3.45;2.92;;;;;;;;;;10154633;28;20041;-81
2023/05/08 22:55:53;;;;;;;3.58;2.95;;;;;;;;;;10220164;28;20151;-82
2023/05/08 23:00:58;;;;;;;4.43;3.85;;;;;;;;;;10152003;28;20055;-82
2023/05/08 23:06:03;;;;;;;3.72;3.25;;;;;;;;;;10254057;22;20062;-87
2023/05/08 23:11:31;;;;;;;3.95;2.72;;;;;;;;;;10248984;28;20427;-84
2023/05/08 23:16:35;;;;;;;4.15;3.00;;;;;;;;;;10233712;28;20050;-84
2023/05/08 23:21:39;;;;;;;4.10;2.50;;;;;;;;;;10259258;28;20058;-83
2023/05/08 23:26:43;;;;;;;3.60;2.95;;;;;;;;;;10250009;28;20130;-85
2023/05/08 23:31:46;;;;;;;3.70;2.55;;;;;;;;;;10248484;28;20048;-83
2023/05/08 23:36:51;;;;;;;3.15;2.78;;;;;;;;;;10255422;28;20058;-83
2023/05/08 23:41:55;;;;;;;6.22;3.10;;;;;;;;;;10255166;28;20410;-84
2023/05/08 23:46:58;;;;;;;3.92;2.67;;;;;;;;;;10199143;28;21578;-84
2023/05/08 23:52:03;;;;;;;4.05;2.92;;;;;;;;;;10255977;28;20068;-84
2023/05/08 23:57:06;;;;;;;3.33;2.88;;;;;;;;;;10176749;28;20052;-83
